Temp: 2.6°C   Baro: 999.5mb
  Wind: 4.9mph   Dir: W (268°)
  Rain: 0.0mm (0.0mm/hr)
  Solar: 0W/m2  Hum: 82%
 
Bath Spa Weather Historical Data
Daily Summary for October 29, 2019 Units:  English    Metric   Both
Next Day »
Daily Weekly Monthly Yearly Custom
  High: Low: Average:
Temperature: 50.9 °F 43.3 °F 46.9 °F
Dew Point: 44.4 °F 39.4 °F 41.9 °F
Humidity: 87% 78% 83%
Wind Speed: 13mph 0mph 4.3mph
Wind Gust: 17mph - -
Wind direction- - East
Pressure: 30.3 in 30.2 in -
Precipitation: 0 in    
Historical Graphs
 
 
Tabular Data for October 29, 2019
Time Temperature Dew Point Pressure Wind direction Wind Speed Wind Gust Humidity Rainfall Rate (Hourly) solar
00:00 45.5 °F 41.5 °F 30.2 in ENE 8.9 mph 11 mph 86% 0 in 0.00 W/m2
00:05 45.5 °F 41.5 °F 30.2 in NNE 2 mph 10 mph 86% 0 in 0.00 W/m2
00:10 45.5 °F 41.5 °F 30.2 in NNE 2 mph 10 mph 86% 0 in 0.00 W/m2
00:15 45.5 °F 41.5 °F 30.2 in NE 2.9 mph 11 mph 86% 0 in 0.00 W/m2
00:20 45.5 °F 41.5 °F 30.2 in East 6 mph 13 mph 86% 0 in 0.00 W/m2
00:25 45.5 °F 41.5 °F 30.2 in East 4.9 mph 7 mph 86% 0 in 0.00 W/m2
00:30 45.5 °F 41.5 °F 30.2 in ESE 2 mph 11 mph 86% 0 in 0.00 W/m2
00:35 45.5 °F 41.5 °F 30.2 in Calm   5 mph 86% 0 in 0.00 W/m2
00:40 45.5 °F 41.5 °F 30.2 in ENE 2.9 mph 10 mph 86% 0 in 0.00 W/m2
00:45 45.3 °F 41.4 °F 30.2 in East 4 mph 12 mph 86% 0 in 0.00 W/m2
00:50 45.3 °F 41.4 °F 30.2 in East 6.9 mph 9 mph 86% 0 in 0.00 W/m2
00:55 45.3 °F 41.4 °F 30.2 in East 8.9 mph 11 mph 86% 0 in 0.00 W/m2
01:00 45.3 °F 41.4 °F 30.2 in East 11 mph 12 mph 86% 0 in 0.00 W/m2
01:05 45.3 °F 41.4 °F 30.2 in NE 0.9 mph 10 mph 86% 0 in 0.00 W/m2
01:10 45.3 °F 41.4 °F 30.2 in ENE 4.9 mph 12 mph 86% 0 in 0.00 W/m2
01:15 45.1 °F 41.2 °F 30.2 in NE 6.9 mph 8 mph 86% 0 in 0.00 W/m2
01:20 45.1 °F 41.2 °F 30.2 in ENE 6.9 mph 10 mph 86% 0 in 0.00 W/m2
01:25 45.1 °F 41.2 °F 30.2 in NNE 6.9 mph 8 mph 86% 0 in 0.00 W/m2
01:30 45.1 °F 41.2 °F 30.2 in ESE 4.9 mph 6 mph 86% 0 in 0.00 W/m2
01:35 45.1 °F 41.2 °F 30.2 in East 4.9 mph 11 mph 86% 0 in 0.00 W/m2
01:40 45 °F 41 °F 30.2 in East 4.9 mph 7 mph 86% 0 in 0.00 W/m2
01:45 45 °F 41 °F 30.2 in East 6 mph 14 mph 86% 0 in 0.00 W/m2
01:50 45 °F 41 °F 30.2 in East 2.9 mph 9 mph 86% 0 in 0.00 W/m2
01:55 44.8 °F 40.8 °F 30.2 in East 4 mph 14 mph 86% 0 in 0.00 W/m2
02:00 45 °F 41 °F 30.2 in NNE 8.1 mph 10 mph 86% 0 in 0.00 W/m2
02:05 44.8 °F 41.2 °F 30.2 in ENE 4 mph 10 mph 87% 0 in 0.00 W/m2
02:10 44.8 °F 40.8 °F 30.2 in NE 2.9 mph 8 mph 86% 0 in 0.00 W/m2
02:15 44.8 °F 40.8 °F 30.2 in Calm   14 mph 86% 0 in 0.00 W/m2
02:20 44.6 °F 40.6 °F 30.2 in Calm   7 mph 86% 0 in 0.00 W/m2
02:25 44.6 °F 41 °F 30.2 in NE 2.9 mph 13 mph 87% 0 in 0.00 W/m2
02:30 44.4 °F 40.8 °F 30.2 in ESE 6 mph 8 mph 87% 0 in 0.00 W/m2
02:35 44.4 °F 40.8 °F 30.2 in ESE 4 mph 6 mph 87% 0 in 0.00 W/m2
02:40 44.4 °F 40.8 °F 30.2 in East 8.9 mph 9 mph 87% 0 in 0.00 W/m2
02:45 44.4 °F 40.8 °F 30.2 in NE 4.9 mph 11 mph 87% 0 in 0.00 W/m2
02:50 44.4 °F 40.8 °F 30.2 in ESE 12.1 mph 12 mph 87% 0 in 0.00 W/m2
02:55 44.4 °F 40.8 °F 30.2 in East 11 mph 15 mph 87% 0 in 0.00 W/m2
03:00 44.4 °F 40.8 °F 30.2 in East 4.9 mph 12 mph 87% 0 in 0.00 W/m2
03:05 44.4 °F 40.8 °F 30.2 in ESE 6 mph 10 mph 87% 0 in 0.00 W/m2
03:10 44.4 °F 40.8 °F 30.2 in ESE 2 mph 7 mph 87% 0 in 0.00 W/m2
03:15 44.2 °F 40.6 °F 30.2 in East 4.9 mph 9 mph 87% 0 in 0.00 W/m2
03:20 44.2 °F 40.6 °F 30.2 in East 0.9 mph 8 mph 87% 0 in 0.00 W/m2
03:25 44.2 °F 40.6 °F 30.2 in East 4.9 mph 10 mph 87% 0 in 0.00 W/m2
03:30 44.2 °F 40.6 °F 30.2 in Calm   9 mph 87% 0 in 0.00 W/m2
03:35 44.2 °F 40.6 °F 30.2 in SE 6.9 mph 10 mph 87% 0 in 0.00 W/m2
03:40 44.2 °F 40.6 °F 30.2 in ESE 4 mph 13 mph 87% 0 in 0.00 W/m2
03:45 44.1 °F 40.5 °F 30.2 in ESE 4 mph 10 mph 87% 0 in 0.00 W/m2
03:50 44.1 °F 40.5 °F 30.2 in ENE 4 mph 10 mph 87% 0 in 0.00 W/m2
03:55 44.1 °F 40.5 °F 30.2 in ESE 4.9 mph 11 mph 87% 0 in 0.00 W/m2
04:00 44.1 °F 40.5 °F 30.2 in ENE 2 mph 15 mph 87% 0 in 0.00 W/m2
04:05 44.1 °F 40.5 °F 30.2 in ENE 4.9 mph 13 mph 87% 0 in 0.00 W/m2
04:10 44.1 °F 40.5 °F 30.2 in East 13 mph 13 mph 87% 0 in 0.00 W/m2
04:15 43.9 °F 40.3 °F 30.2 in East 8.9 mph 14 mph 87% 0 in 0.00 W/m2
04:20 43.9 °F 40.3 °F 30.2 in East 6.9 mph 13 mph 87% 0 in 0.00 W/m2
04:25 43.9 °F 40.3 °F 30.2 in East 4.9 mph 11 mph 87% 0 in 0.00 W/m2
04:30 43.9 °F 40.3 °F 30.2 in NE 8.1 mph 12 mph 87% 0 in 0.00 W/m2
04:35 43.9 °F 40.3 °F 30.2 in ESE 11 mph 11 mph 87% 0 in 0.00 W/m2
04:40 43.9 °F 40.3 °F 30.2 in SE 0.9 mph 8 mph 87% 0 in 0.00 W/m2
04:45 43.7 °F 40.1 °F 30.2 in NE 4.9 mph 10 mph 87% 0 in 0.00 W/m2
04:50 43.7 °F 40.1 °F 30.2 in ESE 2.9 mph 10 mph 87% 0 in 0.00 W/m2
04:55 43.9 °F 40.3 °F 30.2 in NE 2.9 mph 8 mph 87% 0 in 0.00 W/m2
05:00 43.7 °F 40.1 °F 30.2 in ENE 4.9 mph 10 mph 87% 0 in 0.00 W/m2
05:05 43.9 °F 39.9 °F 30.2 in SE 2 mph 11 mph 86% 0 in 0.00 W/m2
05:10 43.7 °F 39.7 °F 30.2 in ESE 6 mph 7 mph 86% 0 in 0.00 W/m2
05:15 43.9 °F 39.9 °F 30.2 in NNE 2.9 mph 15 mph 86% 0 in 0.00 W/m2
05:20 43.7 °F 39.7 °F 30.2 in NE 6.9 mph 9 mph 86% 0 in 0.00 W/m2
05:25 43.7 °F 39.7 °F 30.2 in East 8.9 mph 15 mph 86% 0 in 0.00 W/m2
05:30 43.7 °F 39.7 °F 30.2 in ENE 13 mph 13 mph 86% 0 in 0.00 W/m2
05:35 43.7 °F 39.7 °F 30.2 in East 6.9 mph 15 mph 86% 0 in 0.00 W/m2
05:40 43.7 °F 39.7 °F 30.2 in East 6.9 mph 13 mph 86% 0 in 0.00 W/m2
05:45 43.5 °F 39.6 °F 30.2 in NE 4 mph 10 mph 86% 0 in 0.00 W/m2
05:50 43.5 °F 39.6 °F 30.2 in East 11 mph 13 mph 86% 0 in 0.00 W/m2
05:55 43.5 °F 39.6 °F 30.2 in East 2 mph 8 mph 86% 0 in 0.00 W/m2
06:00 43.5 °F 39.6 °F 30.2 in East 6 mph 9 mph 86% 0 in 0.00 W/m2
06:05 43.3 °F 39.4 °F 30.2 in NE 6 mph 9 mph 86% 0 in 0.00 W/m2
06:10 43.5 °F 39.6 °F 30.2 in ENE 2.9 mph 11 mph 86% 0 in 0.00 W/m2
06:15 43.5 °F 39.6 °F 30.2 in NE 2.9 mph 8 mph 86% 0 in 0.00 W/m2
06:20 43.5 °F 39.6 °F 30.2 in Calm   11 mph 86% 0 in 0.00 W/m2
06:25 43.3 °F 39.4 °F 30.2 in ENE 4 mph 10 mph 86% 0 in 0.00 W/m2
06:30 43.5 °F 39.6 °F 30.2 in ENE 2.9 mph 9 mph 86% 0 in 0.00 W/m2
06:35 43.5 °F 39.6 °F 30.2 in NE 4 mph 11 mph 86% 0 in 0.00 W/m2
06:40 43.3 °F 39.4 °F 30.2 in East 2.9 mph 5 mph 86% 0 in 0.00 W/m2
06:45 43.3 °F 39.4 °F 30.2 in East 4.9 mph 6 mph 86% 0 in 0.00 W/m2
06:50 43.3 °F 39.4 °F 30.2 in ESE 0.9 mph 8 mph 86% 0 in 0.00 W/m2
06:55 43.3 °F 39.4 °F 30.2 in East 2.9 mph 10 mph 86% 0 in 0.00 W/m2
07:00 43.3 °F 39.4 °F 30.2 in ENE 2.9 mph 10 mph 86% 0 in 0.00 W/m2
07:05 43.3 °F 39.4 °F 30.3 in ENE 6.9 mph 9 mph 86% 0 in 5.00 W/m2
07:10 43.3 °F 39.4 °F 30.3 in NNE 4.9 mph 13 mph 86% 0 in 7.00 W/m2
07:15 43.3 °F 39.4 °F 30.2 in NE 4 mph 10 mph 86% 0 in 9.00 W/m2
07:20 43.3 °F 39.4 °F 30.2 in ENE 2 mph 11 mph 86% 0 in 14.00 W/m2
07:25 43.3 °F 39.4 °F 30.2 in East 6.9 mph 7 mph 86% 0 in 16.00 W/m2
07:30 43.3 °F 39.4 °F 30.3 in NE 0.9 mph 11 mph 86% 0 in 18.00 W/m2
07:35 43.3 °F 39.4 °F 30.3 in ENE 4 mph 12 mph 86% 0 in 19.00 W/m2
07:40 43.5 °F 39.6 °F 30.3 in NE 2.9 mph 7 mph 86% 0 in 21.00 W/m2
07:45 43.5 °F 39.4 °F 30.3 in ENE 6.9 mph 13 mph 85% 0 in 26.00 W/m2
07:50 43.5 °F 39.4 °F 30.3 in East 8.1 mph 14 mph 85% 0 in 35.00 W/m2
07:55 43.5 °F 39.4 °F 30.3 in NE 4 mph 10 mph 85% 0 in 40.00 W/m2
08:00 43.5 °F 39.4 °F 30.3 in East 8.1 mph 9 mph 85% 0 in 46.00 W/m2
08:05 43.7 °F 39.6 °F 30.3 in East 4 mph 10 mph 85% 0 in 49.00 W/m2
08:10 43.7 °F 39.6 °F 30.3 in SE 4 mph 7 mph 85% 0 in 53.00 W/m2
08:15 43.9 °F 39.7 °F 30.3 in ENE 6.9 mph 9 mph 85% 0 in 60.00 W/m2
08:20 43.9 °F 39.7 °F 30.3 in North 4.9 mph 11 mph 85% 0 in 63.00 W/m2
08:25 43.9 °F 39.7 °F 30.3 in ENE 4.9 mph 7 mph 85% 0 in 67.00 W/m2
08:30 43.9 °F 39.7 °F 30.3 in East 6.9 mph 9 mph 85% 0 in 70.00 W/m2
08:35 43.9 °F 39.4 °F 30.3 in East 6 mph 10 mph 84% 0 in 69.00 W/m2
08:40 44.1 °F 39.6 °F 30.3 in East 0.9 mph 9 mph 84% 0 in 77.00 W/m2
08:45 44.1 °F 39.6 °F 30.3 in ENE 8.9 mph 12 mph 84% 0 in 86.00 W/m2
08:50 44.2 °F 39.7 °F 30.3 in NNE 0.9 mph 7 mph 84% 0 in 93.00 W/m2
08:55 44.4 °F 39.9 °F 30.3 in NE 2 mph 17 mph 84% 0 in 107.00 W/m2
09:00 44.4 °F 39.9 °F 30.3 in SE 6.9 mph 11 mph 84% 0 in 105.00 W/m2
09:05 44.6 °F 40.1 °F 30.3 in East 0.9 mph 10 mph 84% 0 in 91.00 W/m2
09:10 44.6 °F 39.7 °F 30.3 in East 8.1 mph 13 mph 83% 0 in 97.00 W/m2
09:15 44.8 °F 39.9 °F 30.3 in ENE 2 mph 11 mph 83% 0 in 113.00 W/m2
09:20 44.8 °F 39.9 °F 30.3 in East 8.9 mph 10 mph 83% 0 in 121.00 W/m2
09:25 45 °F 40.1 °F 30.3 in Calm   5 mph 83% 0 in 127.00 W/m2
09:30 45.1 °F 40.3 °F 30.3 in ESE 10.1 mph 12 mph 83% 0 in 132.00 W/m2
09:35 45.1 °F 40.3 °F 30.3 in East 6.9 mph 11 mph 83% 0 in 134.00 W/m2
09:40 45.3 °F 40.5 °F 30.3 in East 2.9 mph 9 mph 83% 0 in 134.00 W/m2
09:45 45.5 °F 40.3 °F 30.3 in NE 0.9 mph 9 mph 82% 0 in 128.00 W/m2
09:50 45.7 °F 40.8 °F 30.3 in NE 4.9 mph 7 mph 83% 0 in 132.00 W/m2
09:55 45.7 °F 40.5 °F 30.3 in ENE 4 mph 6 mph 82% 0 in 132.00 W/m2
10:00 45.9 °F 40.6 °F 30.3 in SE 4.9 mph 10 mph 82% 0 in 142.00 W/m2
10:05 46 °F 40.8 °F 30.3 in SE 4.9 mph 5 mph 82% 0 in 148.00 W/m2
10:10 46.2 °F 41 °F 30.3 in NE 2 mph 7 mph 82% 0 in 155.00 W/m2
10:15 46.4 °F 41.2 °F 30.3 in East 2.9 mph 13 mph 82% 0 in 169.00 W/m2
10:20 46.6 °F 41.4 °F 30.3 in NNE 6 mph 7 mph 82% 0 in 176.00 W/m2
10:25 46.8 °F 41.5 °F 30.3 in East 4 mph 11 mph 82% 0 in 169.00 W/m2
10:30 46.9 °F 41.7 °F 30.3 in SE 6.9 mph 9 mph 82% 0 in 162.00 W/m2
10:35 46.9 °F 41.4 °F 30.3 in ESE 4 mph 9 mph 81% 0 in 162.00 W/m2
10:40 47.1 °F 41.5 °F 30.3 in East 4.9 mph 11 mph 81% 0 in 160.00 W/m2
10:45 47.1 °F 41.5 °F 30.3 in NE 4 mph 7 mph 81% 0 in 167.00 W/m2
10:50 47.3 °F 41.7 °F 30.3 in NE 6 mph 12 mph 81% 0 in 167.00 W/m2
10:55 47.5 °F 41.9 °F 30.3 in SE 6.9 mph 9 mph 81% 0 in 148.00 W/m2
11:00 47.5 °F 41.9 °F 30.3 in ENE 8.9 mph 12 mph 81% 0 in 142.00 W/m2
11:05 47.7 °F 41.7 °F 30.3 in East 4.9 mph 10 mph 80% 0 in 137.00 W/m2
11:10 47.7 °F 41.7 °F 30.3 in NE 2 mph 7 mph 80% 0 in 137.00 W/m2
11:15 47.7 °F 41.7 °F 30.3 in SE 2 mph 7 mph 80% 0 in 149.00 W/m2
11:20 47.8 °F 41.9 °F 30.3 in SE 6.9 mph 9 mph 80% 0 in 156.00 W/m2
11:25 47.8 °F 41.9 °F 30.3 in Calm   13 mph 80% 0 in 165.00 W/m2
11:30 47.8 °F 41.9 °F 30.3 in SE 0.9 mph 9 mph 80% 0 in 167.00 W/m2
11:35 48 °F 42.1 °F 30.3 in East 6.9 mph 10 mph 80% 0 in 169.00 W/m2
11:40 48 °F 42.1 °F 30.2 in East 8.1 mph 13 mph 80% 0 in 171.00 W/m2
11:45 48.2 °F 42.3 °F 30.2 in East 0.9 mph 16 mph 80% 0 in 174.00 W/m2
11:50 48.4 °F 42.4 °F 30.2 in ESE 4.9 mph 9 mph 80% 0 in 172.00 W/m2
11:55 48.6 °F 42.6 °F 30.2 in ENE 2 mph 7 mph 80% 0 in 172.00 W/m2
12:00 48.6 °F 42.6 °F 30.2 in ENE 8.1 mph 8 mph 80% 0 in 181.00 W/m2
12:05 48.7 °F 42.4 °F 30.2 in SE 8.9 mph 9 mph 79% 0 in 183.00 W/m2
12:10 48.9 °F 42.6 °F 30.2 in ENE 2.9 mph 7 mph 79% 0 in 183.00 W/m2
12:15 48.9 °F 42.6 °F 30.2 in ESE 13 mph 14 mph 79% 0 in 171.00 W/m2
12:20 49.1 °F 42.8 °F 30.2 in East 4.9 mph 9 mph 79% 0 in 148.00 W/m2
12:25 49.3 °F 43 °F 30.2 in East 10.1 mph 10 mph 79% 0 in 141.00 W/m2
12:30 49.3 °F 43 °F 30.2 in ESE 0.9 mph 10 mph 79% 0 in 141.00 W/m2
12:35 49.3 °F 43 °F 30.2 in SE 2.9 mph 6 mph 79% 0 in 135.00 W/m2
12:40 49.5 °F 43.2 °F 30.2 in ESE 6.9 mph 7 mph 79% 0 in 128.00 W/m2
12:45 49.5 °F 43.2 °F 30.2 in ENE 6 mph 14 mph 79% 0 in 132.00 W/m2
12:50 49.5 °F 43.2 °F 30.2 in East 6.9 mph 15 mph 79% 0 in 134.00 W/m2
12:55 49.5 °F 43.2 °F 30.2 in East 4 mph 9 mph 79% 0 in 139.00 W/m2
13:00 49.5 °F 43.2 °F 30.2 in East 4 mph 13 mph 79% 0 in 151.00 W/m2
13:05 49.6 °F 43.3 °F 30.2 in SE 2 mph 14 mph 79% 0 in 134.00 W/m2
13:10 49.8 °F 43.5 °F 30.2 in NE 4.9 mph 9 mph 79% 0 in 116.00 W/m2
13:15 49.8 °F 43.5 °F 30.2 in SE 4 mph 11 mph 79% 0 in 141.00 W/m2
13:20 49.8 °F 43.5 °F 30.2 in Calm   5 mph 79% 0 in 141.00 W/m2
13:25 50 °F 43.7 °F 30.2 in ENE 6.9 mph 11 mph 79% 0 in 142.00 W/m2
13:30 50.2 °F 43.9 °F 30.2 in Calm   10 mph 79% 0 in 160.00 W/m2
13:35 50.2 °F 43.9 °F 30.2 in East 6 mph 10 mph 79% 0 in 162.00 W/m2
13:40 50.4 °F 44.1 °F 30.2 in Calm   8 mph 79% 0 in 165.00 W/m2
13:45 50.5 °F 43.9 °F 30.2 in ENE 2 mph 7 mph 78% 0 in 156.00 W/m2
13:50 50.5 °F 43.9 °F 30.2 in ESE 6 mph 11 mph 78% 0 in 142.00 W/m2
13:55 50.5 °F 43.9 °F 30.2 in East 2 mph 8 mph 78% 0 in 132.00 W/m2
14:00 50.5 °F 43.9 °F 30.2 in ESE 4 mph 8 mph 78% 0 in 130.00 W/m2
14:05 50.7 °F 44.1 °F 30.2 in East 4.9 mph 11 mph 78% 0 in 132.00 W/m2
14:10 50.7 °F 44.1 °F 30.2 in ESE 4 mph 6 mph 78% 0 in 111.00 W/m2
14:15 50.7 °F 44.1 °F 30.2 in ESE 8.1 mph 10 mph 78% 0 in 69.00 W/m2
14:20 50.5 °F 43.9 °F 30.2 in East 4.9 mph 8 mph 78% 0 in 56.00 W/m2
14:25 50.5 °F 43.9 °F 30.2 in ENE 4.9 mph 5 mph 78% 0 in 44.00 W/m2
14:30 50.5 °F 43.9 °F 30.2 in ESE 2.9 mph 8 mph 78% 0 in 40.00 W/m2
14:35 50.5 °F 43.9 °F 30.2 in ESE 0.9 mph 9 mph 78% 0 in 60.00 W/m2
14:40 50.5 °F 43.9 °F 30.2 in NE 2 mph 8 mph 78% 0 in 88.00 W/m2
14:45 50.7 °F 44.1 °F 30.2 in ENE 2 mph 11 mph 78% 0 in 76.00 W/m2
14:50 50.7 °F 44.1 °F 30.2 in NNE 0.9 mph 5 mph 78% 0 in 72.00 W/m2
14:55 50.5 °F 43.9 °F 30.2 in East 4 mph 8 mph 78% 0 in 58.00 W/m2
15:00 50.7 °F 44.1 °F 30.2 in ENE 8.9 mph 12 mph 78% 0 in 56.00 W/m2
15:05 50.7 °F 44.1 °F 30.2 in Calm   9 mph 78% 0 in 58.00 W/m2
15:10 50.7 °F 44.4 °F 30.2 in ESE 2 mph 9 mph 79% 0 in 62.00 W/m2
15:15 50.7 °F 44.4 °F 30.2 in ESE 8.1 mph 12 mph 79% 0 in 70.00 W/m2
15:20 50.7 °F 44.1 °F 30.2 in ENE 2.9 mph 8 mph 78% 0 in 72.00 W/m2
15:25 50.9 °F 44.2 °F 30.2 in SE 6 mph 12 mph 78% 0 in 69.00 W/m2
15:30 50.9 °F 44.2 °F 30.2 in ESE 0.9 mph 10 mph 78% 0 in 60.00 W/m2
15:35 50.9 °F 44.2 °F 30.2 in East 12.1 mph 12 mph 78% 0 in 53.00 W/m2
15:40 50.9 °F 44.2 °F 30.2 in Calm   5 mph 78% 0 in 47.00 W/m2
15:45 50.7 °F 44.1 °F 30.2 in ESE 6.9 mph 10 mph 78% 0 in 49.00 W/m2
15:50 50.7 °F 44.1 °F 30.2 in ENE 4 mph 7 mph 78% 0 in 53.00 W/m2
15:55 50.5 °F 43.9 °F 30.2 in ESE 2 mph 5 mph 78% 0 in 47.00 W/m2
16:00 50.5 °F 43.9 °F 30.2 in ESE 2 mph 4 mph 78% 0 in 40.00 W/m2
16:05 50.4 °F 44.1 °F 30.2 in NE 4.9 mph 8 mph 79% 0 in 32.00 W/m2
16:10 50.4 °F 44.1 °F 30.2 in ESE 2 mph 4 mph 79% 0 in 25.00 W/m2
16:15 50.4 °F 44.1 °F 30.2 in NNE 2 mph 8 mph 79% 0 in 21.00 W/m2
16:20 50.2 °F 43.9 °F 30.2 in East 2.9 mph 8 mph 79% 0 in 18.00 W/m2
16:25 50 °F 43.7 °F 30.2 in East 4.9 mph 8 mph 79% 0 in 14.00 W/m2
16:30 49.8 °F 43.5 °F 30.2 in East 2.9 mph 10 mph 79% 0 in 11.00 W/m2
16:35 50 °F 43.7 °F 30.2 in East 2 mph 11 mph 79% 0 in 7.00 W/m2
16:40 49.8 °F 43.5 °F 30.2 in East 8.1 mph 9 mph 79% 0 in 5.00 W/m2
16:45 49.8 °F 43.5 °F 30.2 in ESE 2.9 mph 6 mph 79% 0 in 0.00 W/m2
16:50 49.6 °F 43.7 °F 30.2 in ESE 2.9 mph 8 mph 80% 0 in 0.00 W/m2
16:55 49.6 °F 43.7 °F 30.2 in ENE 4.9 mph 9 mph 80% 0 in 0.00 W/m2
17:00 49.6 °F 43.7 °F 30.2 in NE 2 mph 5 mph 80% 0 in 0.00 W/m2
17:05 49.6 °F 43.7 °F 30.2 in ESE 2.9 mph 9 mph 80% 0 in 0.00 W/m2
17:10 49.6 °F 43.7 °F 30.2 in East 6.9 mph 14 mph 80% 0 in 0.00 W/m2
17:15 49.6 °F 43.7 °F 30.2 in East 2.9 mph 12 mph 80% 0 in 0.00 W/m2
17:20 49.6 °F 43.7 °F 30.2 in ESE 2 mph 10 mph 80% 0 in 0.00 W/m2
17:25 49.6 °F 43.7 °F 30.2 in Calm   9 mph 80% 0 in 0.00 W/m2
17:30 49.5 °F 43.5 °F 30.2 in ENE 2 mph 5 mph 80% 0 in 0.00 W/m2
17:35 49.5 °F 43.5 °F 30.2 in East 0.9 mph 10 mph 80% 0 in 0.00 W/m2
17:40 49.5 °F 43.5 °F 30.2 in ENE 4.9 mph 8 mph 80% 0 in 0.00 W/m2
17:45 49.5 °F 43.5 °F 30.2 in East 2.9 mph 9 mph 80% 0 in 0.00 W/m2
17:50 49.5 °F 43.5 °F 30.2 in ESE 4.9 mph 6 mph 80% 0 in 0.00 W/m2
17:55 49.5 °F 43.5 °F 30.2 in ENE 0.9 mph 9 mph 80% 0 in 0.00 W/m2
18:00 49.5 °F 43.9 °F 30.2 in East 6.9 mph 10 mph 81% 0 in 0.00 W/m2
18:05 49.5 °F 43.9 °F 30.2 in East 2 mph 4 mph 81% 0 in 0.00 W/m2
18:10 49.5 °F 43.9 °F 30.2 in East 6 mph 7 mph 81% 0 in 0.00 W/m2
18:15 49.5 °F 43.9 °F 30.2 in ESE 0.9 mph 9 mph 81% 0 in 0.00 W/m2
18:20 49.3 °F 43.7 °F 30.2 in ENE 0.9 mph 7 mph 81% 0 in 0.00 W/m2
18:25 49.3 °F 43.7 °F 30.2 in Calm   5 mph 81% 0 in 0.00 W/m2
18:30 49.3 °F 43.7 °F 30.2 in ESE 6.9 mph 7 mph 81% 0 in 0.00 W/m2
18:35 49.3 °F 43.7 °F 30.2 in East 2 mph 7 mph 81% 0 in 0.00 W/m2
18:40 49.3 °F 43.7 °F 30.2 in East 6 mph 7 mph 81% 0 in 0.00 W/m2
18:45 49.1 °F 43.5 °F 30.2 in ESE 0.9 mph 12 mph 81% 0 in 0.00 W/m2
18:50 49.1 °F 43.5 °F 30.2 in East 2 mph 7 mph 81% 0 in 0.00 W/m2
18:55 49.1 °F 43.5 °F 30.2 in SE 4 mph 10 mph 81% 0 in 0.00 W/m2
19:00 49.1 °F 43.5 °F 30.2 in ESE 0.9 mph 9 mph 81% 0 in 0.00 W/m2
19:05 48.9 °F 43.3 °F 30.2 in Calm   5 mph 81% 0 in 0.00 W/m2
19:10 48.9 °F 43.3 °F 30.2 in ESE 8.1 mph 8 mph 81% 0 in 0.00 W/m2
19:15 48.9 °F 43.3 °F 30.2 in East 6 mph 11 mph 81% 0 in 0.00 W/m2
19:20 48.9 °F 43.3 °F 30.3 in ESE 4.9 mph 8 mph 81% 0 in 0.00 W/m2
19:25 48.9 °F 43.3 °F 30.2 in Calm   7 mph 81% 0 in 0.00 W/m2
19:30 48.9 °F 43.3 °F 30.3 in ESE 0.9 mph 8 mph 81% 0 in 0.00 W/m2
19:35 48.9 °F 43.3 °F 30.3 in ESE 4 mph 11 mph 81% 0 in 0.00 W/m2
19:40 48.9 °F 43.3 °F 30.3 in East 4.9 mph 6 mph 81% 0 in 0.00 W/m2
19:45 48.7 °F 42.8 °F 30.3 in ESE 6 mph 10 mph 80% 0 in 0.00 W/m2
19:50 48.7 °F 43.2 °F 30.3 in East 6.9 mph 9 mph 81% 0 in 0.00 W/m2
19:55 48.7 °F 42.8 °F 30.3 in ESE 4 mph 10 mph 80% 0 in 0.00 W/m2
20:00 48.7 °F 42.8 °F 30.3 in ESE 11 mph 11 mph 80% 0 in 0.00 W/m2
20:05 48.7 °F 42.8 °F 30.3 in East 2 mph 3 mph 80% 0 in 0.00 W/m2
20:10 48.7 °F 42.8 °F 30.3 in East 6 mph 7 mph 80% 0 in 0.00 W/m2
20:15 48.7 °F 42.8 °F 30.3 in East 6.9 mph 9 mph 80% 0 in 0.00 W/m2
20:20 48.7 °F 42.8 °F 30.3 in East 2.9 mph 5 mph 80% 0 in 0.00 W/m2
20:25 48.6 °F 43 °F 30.3 in East 4.9 mph 10 mph 81% 0 in 0.00 W/m2
20:30 48.7 °F 42.8 °F 30.3 in NE 2 mph 8 mph 80% 0 in 0.00 W/m2
20:35 48.6 °F 42.6 °F 30.3 in East 0.9 mph 9 mph 80% 0 in 0.00 W/m2
20:40 48.6 °F 42.6 °F 30.3 in NE 8.1 mph 10 mph 80% 0 in 0.00 W/m2
20:45 48.6 °F 42.6 °F 30.3 in ESE 2 mph 9 mph 80% 0 in 0.00 W/m2
20:50 48.4 °F 42.4 °F 30.3 in ENE 2 mph 9 mph 80% 0 in 0.00 W/m2
20:55 48.4 °F 42.4 °F 30.3 in ESE 6 mph 15 mph 80% 0 in 0.00 W/m2
21:00 48.4 °F 42.4 °F 30.3 in ESE 2.9 mph 8 mph 80% 0 in 0.00 W/m2
21:05 48.4 °F 42.4 °F 30.3 in SE 8.9 mph 14 mph 80% 0 in 0.00 W/m2
21:10 48.4 °F 42.4 °F 30.3 in ESE 4 mph 7 mph 80% 0 in 0.00 W/m2
21:15 48.2 °F 42.3 °F 30.3 in East 2 mph 8 mph 80% 0 in 0.00 W/m2
21:20 48.2 °F 42.3 °F 30.3 in ENE 8.9 mph 13 mph 80% 0 in 0.00 W/m2
21:25 48.2 °F 42.3 °F 30.3 in ENE 4.9 mph 9 mph 80% 0 in 0.00 W/m2
21:30 48 °F 42.4 °F 30.3 in East 0.9 mph 9 mph 81% 0 in 0.00 W/m2
21:35 48 °F 42.4 °F 30.3 in East 6.9 mph 7 mph 81% 0 in 0.00 W/m2
21:40 48 °F 42.4 °F 30.3 in East 4 mph 8 mph 81% 0 in 0.00 W/m2
21:45 48 °F 42.4 °F 30.3 in ESE 4 mph 10 mph 81% 0 in 0.00 W/m2
21:50 48 °F 42.4 °F 30.3 in ESE 2 mph 9 mph 81% 0 in 0.00 W/m2
21:55 48 °F 42.4 °F 30.3 in East 2.9 mph 10 mph 81% 0 in 0.00 W/m2
22:00 47.8 °F 42.3 °F 30.3 in ENE 4.9 mph 6 mph 81% 0 in 0.00 W/m2
22:05 47.8 °F 42.3 °F 30.3 in ESE 2.9 mph 8 mph 81% 0 in 0.00 W/m2
22:10 47.8 °F 42.3 °F 30.3 in ESE 4.9 mph 8 mph 81% 0 in 0.00 W/m2
22:15 47.7 °F 42.1 °F 30.3 in East 2.9 mph 9 mph 81% 0 in 0.00 W/m2
22:20 47.7 °F 42.1 °F 30.3 in NE 2.9 mph 8 mph 81% 0 in 0.00 W/m2
22:25 47.7 °F 42.1 °F 30.3 in Calm   7 mph 81% 0 in 0.00 W/m2
22:30 47.5 °F 41.9 °F 30.3 in East 4 mph 9 mph 81% 0 in 0.00 W/m2
22:35 47.5 °F 42.3 °F 30.3 in ESE 2.9 mph 8 mph 82% 0 in 0.00 W/m2
22:40 47.5 °F 42.3 °F 30.3 in East 2 mph 9 mph 82% 0 in 0.00 W/m2
22:45 47.5 °F 42.3 °F 30.3 in East 4.9 mph 8 mph 82% 0 in 0.00 W/m2
22:50 47.5 °F 42.3 °F 30.3 in East 2 mph 5 mph 82% 0 in 0.00 W/m2
22:55 47.5 °F 42.3 °F 30.3 in ENE 2.9 mph 8 mph 82% 0 in 0.00 W/m2
23:00 47.5 °F 42.3 °F 30.3 in Calm   10 mph 82% 0 in 0.00 W/m2
23:05 47.3 °F 42.1 °F 30.3 in East 2.9 mph 7 mph 82% 0 in 0.00 W/m2
23:10 47.1 °F 42.3 °F 30.3 in ENE 8.1 mph 9 mph 83% 0 in 0.00 W/m2
23:15 47.1 °F 41.9 °F 30.3 in ESE 2.9 mph 6 mph 82% 0 in 0.00 W/m2
23:20 47.1 °F 42.3 °F 30.3 in East 2 mph 8 mph 83% 0 in 0.00 W/m2
23:25 47.3 °F 42.4 °F 30.2 in East 6 mph 13 mph 83% 0 in 0.00 W/m2
23:30 47.1 °F 42.3 °F 30.2 in ENE 8.9 mph 9 mph 83% 0 in 0.00 W/m2
23:35 47.3 °F 42.4 °F 30.2 in NE 4 mph 8 mph 83% 0 in 0.00 W/m2
23:40 47.3 °F 42.4 °F 30.2 in ESE 4 mph 12 mph 83% 0 in 0.00 W/m2
23:45 47.3 °F 42.1 °F 30.2 in NE 4.9 mph 12 mph 82% 0 in 0.00 W/m2
23:50 47.3 °F 42.1 °F 30.2 in ENE 8.9 mph 12 mph 82% 0 in 0.00 W/m2
23:55 47.5 °F 42.3 °F 30.2 in East 2.9 mph 11 mph 82% 0 in 0.00 W/m2